sensor_id;sensor_type;location;lat;lon;timestamp;pressure;altitude;pressure_sealevel;temperature;humidity
57050;BME280;42935;50.966;16.992;2023-07-20T00:02:01;100898.91;;;15.65;100.00
57050;BME280;42935;50.966;16.992;2023-07-20T00:05:18;100902.72;;;15.64;100.00
57050;BME280;42935;50.966;16.992;2023-07-20T00:08:38;100919.09;;;15.49;100.00
57050;BME280;42935;50.966;16.992;2023-07-20T00:11:55;100948.97;;;15.37;100.00
57050;BME280;42935;50.966;16.992;2023-07-20T00:15:12;100963.44;;;15.25;100.00
57050;BME280;42935;50.966;16.992;2023-07-20T00:18:27;100937.56;;;15.24;100.00
57050;BME280;42935;50.966;16.992;2023-07-20T00:21:42;100919.89;;;15.23;100.00
57050;BME280;42935;50.966;16.992;2023-07-20T00:24:57;100938.12;;;15.18;100.00
57050;BME280;42935;50.966;16.992;2023-07-20T00:28:14;100934.72;;;14.94;100.00
57050;BME280;42935;50.966;16.992;2023-07-20T00:31:35;100935.25;;;14.97;100.00
57050;BME280;42935;50.966;16.992;2023-07-20T00:34:49;100942.29;;;15.01;100.00
57050;BME280;42935;50.966;16.992;2023-07-20T00:38:03;100924.58;;;15.00;100.00
57050;BME280;42935;50.966;16.992;2023-07-20T00:41:46;100888.46;;;15.06;100.00
57050;BME280;42935;50.966;16.992;2023-07-20T00:44:59;100893.75;;;15.15;100.00
57050;BME280;42935;50.966;16.992;2023-07-20T00:48:14;100882.90;;;15.17;100.00
57050;BME280;42935;50.966;16.992;2023-07-20T00:51:34;100877.22;;;15.35;100.00
57050;BME280;42935;50.966;16.992;2023-07-20T00:54:50;100877.80;;;15.21;100.00
57050;BME280;42935;50.966;16.992;2023-07-20T00:58:05;100880.22;;;15.24;100.00
57050;BME280;42935;50.966;16.992;2023-07-20T01:01:23;100869.52;;;15.40;100.00
57050;BME280;42935;50.966;16.992;2023-07-20T01:04:37;100846.53;;;15.55;100.00
57050;BME280;42935;50.966;16.992;2023-07-20T01:08:00;100881.73;;;15.55;100.00
57050;BME280;42935;50.966;16.992;2023-07-20T01:11:28;100882.83;;;15.33;100.00
57050;BME280;42935;50.966;16.992;2023-07-20T01:14:44;100895.21;;;15.37;100.00
57050;BME280;42935;50.966;16.992;2023-07-20T01:17:59;100890.41;;;15.34;100.00
57050;BME280;42935;50.966;16.992;2023-07-20T01:21:31;100889.95;;;15.31;100.00
57050;BME280;42935;50.966;16.992;2023-07-20T01:28:20;100882.11;;;15.65;100.00
57050;BME280;42935;50.966;16.992;2023-07-20T01:31:38;100871.76;;;15.70;100.00
57050;BME280;42935;50.966;16.992;2023-07-20T01:34:57;100867.07;;;15.73;100.00
57050;BME280;42935;50.966;16.992;2023-07-20T01:38:18;100867.23;;;15.86;100.00
57050;BME280;42935;50.966;16.992;2023-07-20T01:41:35;100883.44;;;15.90;100.00
57050;BME280;42935;50.966;16.992;2023-07-20T01:44:50;100891.14;;;15.73;100.00
57050;BME280;42935;50.966;16.992;2023-07-20T01:48:07;100891.17;;;15.77;100.00
57050;BME280;42935;50.966;16.992;2023-07-20T01:51:20;100885.53;;;15.62;100.00
57050;BME280;42935;50.966;16.992;2023-07-20T01:54:38;100892.95;;;15.11;100.00
57050;BME280;42935;50.966;16.992;2023-07-20T01:57:56;100880.93;;;14.90;100.00
57050;BME280;42935;50.966;16.992;2023-07-20T02:01:16;100885.06;;;14.89;100.00
57050;BME280;42935;50.966;16.992;2023-07-20T02:05:16;100876.12;;;14.54;100.00
57050;BME280;42935;50.966;16.992;2023-07-20T02:08:33;100885.97;;;14.43;100.00
57050;BME280;42935;50.966;16.992;2023-07-20T02:11:48;100863.99;;;14.22;100.00
57050;BME280;42935;50.966;16.992;2023-07-20T02:15:04;100892.59;;;14.41;100.00
57050;BME280;42935;50.966;16.992;2023-07-20T02:18:25;100885.88;;;14.56;100.00
57050;BME280;42935;50.966;16.992;2023-07-20T02:21:42;100887.72;;;14.47;100.00
57050;BME280;42935;50.966;16.992;2023-07-20T02:25:00;100895.20;;;14.52;100.00
57050;BME280;42935;50.966;16.992;2023-07-20T02:28:15;100909.48;;;14.64;100.00
57050;BME280;42935;50.966;16.992;2023-07-20T02:31:32;100896.85;;;14.54;100.00
57050;BME280;42935;50.966;16.992;2023-07-20T02:34:47;100906.03;;;14.49;100.00
57050;BME280;42935;50.966;16.992;2023-07-20T02:38:04;100894.71;;;14.52;100.00
57050;BME280;42935;50.966;16.992;2023-07-20T02:41:25;100911.98;;;14.57;100.00
57050;BME280;42935;50.966;16.992;2023-07-20T02:44:40;100910.52;;;14.59;100.00
57050;BME280;42935;50.966;16.992;2023-07-20T02:47:59;100902.68;;;14.64;100.00
57050;BME280;42935;50.966;16.992;2023-07-20T02:51:14;100904.80;;;14.53;100.00
57050;BME280;42935;50.966;16.992;2023-07-20T02:54:32;100893.01;;;14.49;100.00
57050;BME280;42935;50.966;16.992;2023-07-20T02:57:47;100901.74;;;14.46;100.00
57050;BME280;42935;50.966;16.992;2023-07-20T03:01:00;100903.41;;;14.30;100.00
57050;BME280;42935;50.966;16.992;2023-07-20T03:04:16;100903.70;;;14.10;100.00
57050;BME280;42935;50.966;16.992;2023-07-20T03:07:33;100897.41;;;13.90;100.00
57050;BME280;42935;50.966;16.992;2023-07-20T03:10:50;100910.86;;;13.80;100.00
57050;BME280;42935;50.966;16.992;2023-07-20T03:14:05;100912.52;;;13.75;100.00
57050;BME280;42935;50.966;16.992;2023-07-20T03:17:26;100911.03;;;13.72;100.00
57050;BME280;42935;50.966;16.992;2023-07-20T03:20:43;100901.30;;;13.59;100.00
57050;BME280;42935;50.966;16.992;2023-07-20T03:24:02;100909.70;;;13.64;100.00
57050;BME280;42935;50.966;16.992;2023-07-20T03:27:17;100905.11;;;13.68;100.00
57050;BME280;42935;50.966;16.992;2023-07-20T03:30:32;100910.91;;;13.76;100.00
57050;BME280;42935;50.966;16.992;2023-07-20T03:33:49;100915.24;;;13.79;100.00
57050;BME280;42935;50.966;16.992;2023-07-20T03:37:08;100917.93;;;13.85;100.00
57050;BME280;42935;50.966;16.992;2023-07-20T03:40:23;100913.89;;;14.07;100.00
57050;BME280;42935;50.966;16.992;2023-07-20T03:43:41;100908.12;;;14.12;100.00
57050;BME280;42935;50.966;16.992;2023-07-20T03:46:58;100897.16;;;13.85;100.00
57050;BME280;42935;50.966;16.992;2023-07-20T03:50:13;100920.42;;;14.03;100.00
57050;BME280;42935;50.966;16.992;2023-07-20T03:53:28;100909.84;;;14.13;100.00
57050;BME280;42935;50.966;16.992;2023-07-20T03:56:45;100916.19;;;14.29;100.00
57050;BME280;42935;50.966;16.992;2023-07-20T04:00:00;100916.40;;;14.54;100.00
57050;BME280;42935;50.966;16.992;2023-07-20T04:03:20;100910.86;;;14.73;100.00
57050;BME280;42935;50.966;16.992;2023-07-20T04:06:37;100898.10;;;14.84;100.00
57050;BME280;42935;50.966;16.992;2023-07-20T04:09:55;100914.75;;;14.77;100.00
57050;BME280;42935;50.966;16.992;2023-07-20T04:13:15;100917.97;;;14.71;100.00
57050;BME280;42935;50.966;16.992;2023-07-20T04:16:32;100923.50;;;14.79;100.00
57050;BME280;42935;50.966;16.992;2023-07-20T04:19:50;100907.20;;;14.69;100.00
57050;BME280;42935;50.966;16.992;2023-07-20T04:23:07;100922.83;;;14.85;100.00
57050;BME280;42935;50.966;16.992;2023-07-20T04:26:24;100939.69;;;14.82;100.00
57050;BME280;42935;50.966;16.992;2023-07-20T04:29:41;100936.67;;;14.86;100.00
57050;BME280;42935;50.966;16.992;2023-07-20T04:32:56;100943.44;;;14.85;100.00
57050;BME280;42935;50.966;16.992;2023-07-20T04:36:11;100937.12;;;14.78;100.00
57050;BME280;42935;50.966;16.992;2023-07-20T04:39:29;100945.55;;;14.75;100.00
57050;BME280;42935;50.966;16.992;2023-07-20T04:42:47;100939.46;;;14.81;100.00
57050;BME280;42935;50.966;16.992;2023-07-20T04:46:05;100948.40;;;14.92;100.00
57050;BME280;42935;50.966;16.992;2023-07-20T04:49:22;100953.06;;;14.98;100.00
57050;BME280;42935;50.966;16.992;2023-07-20T04:52:40;100952.44;;;15.05;100.00
57050;BME280;42935;50.966;16.992;2023-07-20T04:55:53;100960.13;;;14.97;100.00
57050;BME280;42935;50.966;16.992;2023-07-20T04:59:08;100966.85;;;14.98;100.00
57050;BME280;42935;50.966;16.992;2023-07-20T05:02:25;100971.74;;;15.21;100.00
57050;BME280;42935;50.966;16.992;2023-07-20T05:05:42;100962.17;;;15.20;100.00
57050;BME280;42935;50.966;16.992;2023-07-20T05:09:01;100972.11;;;15.49;100.00
57050;BME280;42935;50.966;16.992;2023-07-20T05:12:22;100975.77;;;15.33;100.00
57050;BME280;42935;50.966;16.992;2023-07-20T05:15:36;100968.74;;;15.31;100.00
57050;BME280;42935;50.966;16.992;2023-07-20T05:18:53;100987.09;;;15.47;100.00
57050;BME280;42935;50.966;16.992;2023-07-20T05:22:14;100985.74;;;15.63;100.00
57050;BME280;42935;50.966;16.992;2023-07-20T05:25:31;100994.49;;;15.73;100.00
57050;BME280;42935;50.966;16.992;2023-07-20T05:29:20;100977.50;;;15.90;100.00
57050;BME280;42935;50.966;16.992;2023-07-20T05:32:37;100985.79;;;15.98;100.00
57050;BME280;42935;50.966;16.992;2023-07-20T05:35:52;100987.98;;;16.04;100.00
57050;BME280;42935;50.966;16.992;2023-07-20T05:39:08;100987.12;;;16.07;100.00
57050;BME280;42935;50.966;16.992;2023-07-20T05:42:26;100986.22;;;16.18;100.00
57050;BME280;42935;50.966;16.992;2023-07-20T05:45:43;100994.82;;;16.28;100.00
57050;BME280;42935;50.966;16.992;2023-07-20T05:49:05;100988.09;;;16.24;100.00
57050;BME280;42935;50.966;16.992;2023-07-20T05:52:27;100978.59;;;15.95;100.00
57050;BME280;42935;50.966;16.992;2023-07-20T05:55:51;100993.76;;;16.05;100.00
57050;BME280;42935;50.966;16.992;2023-07-20T05:59:09;100982.24;;;15.97;100.00
57050;BME280;42935;50.966;16.992;2023-07-20T06:02:26;100992.99;;;16.04;100.00
57050;BME280;42935;50.966;16.992;2023-07-20T06:06:01;100998.10;;;16.40;100.00
57050;BME280;42935;50.966;16.992;2023-07-20T06:09:19;101005.62;;;16.74;100.00
57050;BME280;42935;50.966;16.992;2023-07-20T06:12:38;101000.87;;;16.66;100.00
57050;BME280;42935;50.966;16.992;2023-07-20T06:15:55;101000.82;;;16.66;100.00
57050;BME280;42935;50.966;16.992;2023-07-20T06:19:13;101008.20;;;16.76;100.00
57050;BME280;42935;50.966;16.992;2023-07-20T06:22:38;101008.13;;;16.82;100.00
57050;BME280;42935;50.966;16.992;2023-07-20T06:25:56;101018.95;;;16.84;100.00
57050;BME280;42935;50.966;16.992;2023-07-20T06:29:15;101004.56;;;16.83;100.00
57050;BME280;42935;50.966;16.992;2023-07-20T06:32:35;101014.84;;;17.18;100.00
57050;BME280;42935;50.966;16.992;2023-07-20T06:35:57;101001.45;;;16.95;100.00
57050;BME280;42935;50.966;16.992;2023-07-20T06:39:17;100999.97;;;17.04;100.00
57050;BME280;42935;50.966;16.992;2023-07-20T06:42:30;101014.28;;;17.60;100.00
57050;BME280;42935;50.966;16.992;2023-07-20T06:46:25;101022.31;;;17.44;100.00
57050;BME280;42935;50.966;16.992;2023-07-20T06:49:42;101029.73;;;17.65;100.00
57050;BME280;42935;50.966;16.992;2023-07-20T06:53:01;101026.65;;;17.65;100.00
57050;BME280;42935;50.966;16.992;2023-07-20T06:56:20;101003.12;;;17.58;100.00
57050;BME280;42935;50.966;16.992;2023-07-20T06:59:40;101016.07;;;17.97;100.00
57050;BME280;42935;50.966;16.992;2023-07-20T07:03:01;101037.12;;;17.37;100.00
57050;BME280;42935;50.966;16.992;2023-07-20T07:06:15;101024.41;;;17.51;100.00
57050;BME280;42935;50.966;16.992;2023-07-20T07:09:36;100999.24;;;17.54;100.00
57050;BME280;42935;50.966;16.992;2023-07-20T07:12:55;101032.70;;;17.63;100.00
57050;BME280;42935;50.966;16.992;2023-07-20T07:16:10;101029.87;;;17.77;100.00
57050;BME280;42935;50.966;16.992;2023-07-20T07:19:25;101038.15;;;18.03;100.00
57050;BME280;42935;50.966;16.992;2023-07-20T07:22:42;101034.55;;;17.89;100.00
57050;BME280;42935;50.966;16.992;2023-07-20T07:26:02;101039.66;;;17.84;100.00
57050;BME280;42935;50.966;16.992;2023-07-20T07:29:22;101035.67;;;18.02;100.00
57050;BME280;42935;50.966;16.992;2023-07-20T07:32:35;101033.33;;;18.15;100.00
57050;BME280;42935;50.966;16.992;2023-07-20T07:35:58;101043.01;;;18.40;100.00
57050;BME280;42935;50.966;16.992;2023-07-20T07:39:17;101033.69;;;18.37;100.00
57050;BME280;42935;50.966;16.992;2023-07-20T07:42:34;101046.29;;;18.36;100.00
57050;BME280;42935;50.966;16.992;2023-07-20T07:45:53;101036.90;;;17.95;100.00
57050;BME280;42935;50.966;16.992;2023-07-20T07:49:09;101047.84;;;18.23;100.00
57050;BME280;42935;50.966;16.992;2023-07-20T07:52:22;101039.60;;;18.85;100.00
57050;BME280;42935;50.966;16.992;2023-07-20T07:55:40;101042.76;;;18.51;100.00
57050;BME280;42935;50.966;16.992;2023-07-20T07:58:57;101045.04;;;18.78;100.00
57050;BME280;42935;50.966;16.992;2023-07-20T08:02:45;101051.99;;;18.51;100.00
57050;BME280;42935;50.966;16.992;2023-07-20T08:06:10;101011.17;;;18.01;100.00
57050;BME280;42935;50.966;16.992;2023-07-20T08:09:26;101053.29;;;18.36;100.00
57050;BME280;42935;50.966;16.992;2023-07-20T08:12:39;101037.95;;;18.75;100.00
57050;BME280;42935;50.966;16.992;2023-07-20T08:15:56;101048.73;;;18.77;100.00
57050;BME280;42935;50.966;16.992;2023-07-20T08:19:43;101048.98;;;19.16;100.00
57050;BME280;42935;50.966;16.992;2023-07-20T08:23:04;101049.12;;;19.51;94.16
57050;BME280;42935;50.966;16.992;2023-07-20T08:26:25;101049.22;;;19.66;94.66
57050;BME280;42935;50.966;16.992;2023-07-20T08:29:44;101049.26;;;19.10;93.81
57050;BME280;42935;50.966;16.992;2023-07-20T08:33:01;101059.00;;;18.79;99.79
57050;BME280;42935;50.966;16.992;2023-07-20T08:36:19;101057.78;;;18.40;100.00
57050;BME280;42935;50.966;16.992;2023-07-20T08:39:34;101049.28;;;18.30;100.00
57050;BME280;42935;50.966;16.992;2023-07-20T08:42:49;101061.88;;;18.18;100.00
57050;BME280;42935;50.966;16.992;2023-07-20T08:46:03;101060.75;;;18.71;100.00
57050;BME280;42935;50.966;16.992;2023-07-20T08:49:51;101050.47;;;19.51;93.40
57050;BME280;42935;50.966;16.992;2023-07-20T08:53:39;101056.34;;;20.27;86.65
57050;BME280;42935;50.966;16.992;2023-07-20T08:57:03;101041.34;;;19.78;86.03
57050;BME280;42935;50.966;16.992;2023-07-20T09:00:17;101051.49;;;19.87;91.31
57050;BME280;42935;50.966;16.992;2023-07-20T09:03:31;101064.44;;;19.68;91.41
57050;BME280;42935;50.966;16.992;2023-07-20T09:06:45;101065.22;;;19.35;93.18
57050;BME280;42935;50.966;16.992;2023-07-20T09:09:59;101060.73;;;19.82;91.92
57050;BME280;42935;50.966;16.992;2023-07-20T09:13:19;101065.94;;;19.62;87.52
57050;BME280;42935;50.966;16.992;2023-07-20T09:20:07;101065.46;;;20.15;80.87
57050;BME280;42935;50.966;16.992;2023-07-20T09:23:33;101061.63;;;20.82;79.78
57050;BME280;42935;50.966;16.992;2023-07-20T09:27:29;101057.98;;;20.25;82.02
57050;BME280;42935;50.966;16.992;2023-07-20T09:30:42;101056.32;;;20.08;79.43
57050;BME280;42935;50.966;16.992;2023-07-20T09:34:00;101057.09;;;20.96;75.21
57050;BME280;42935;50.966;16.992;2023-07-20T09:37:25;101034.48;;;20.97;69.94
57050;BME280;42935;50.966;16.992;2023-07-20T09:40:42;101019.00;;;20.66;73.10
57050;BME280;42935;50.966;16.992;2023-07-20T09:43:58;101058.32;;;20.67;72.33
57050;BME280;42935;50.966;16.992;2023-07-20T09:47:14;101060.85;;;20.03;71.92
57050;BME280;42935;50.966;16.992;2023-07-20T09:50:31;101049.23;;;20.05;71.28
57050;BME280;42935;50.966;16.992;2023-07-20T09:53:49;101054.97;;;20.16;73.13
57050;BME280;42935;50.966;16.992;2023-07-20T09:57:11;101003.85;;;19.67;69.57
57050;BME280;42935;50.966;16.992;2023-07-20T10:00:27;101046.78;;;19.83;71.45
57050;BME280;42935;50.966;16.992;2023-07-20T10:03:45;101035.88;;;20.65;69.89
57050;BME280;42935;50.966;16.992;2023-07-20T10:07:00;101028.93;;;20.61;67.51
57050;BME280;42935;50.966;16.992;2023-07-20T10:10:21;101037.38;;;21.17;67.06
57050;BME280;42935;50.966;16.992;2023-07-20T10:13:44;101029.48;;;20.94;66.48
57050;BME280;42935;50.966;16.992;2023-07-20T10:16:58;101027.86;;;21.60;67.30
57050;BME280;42935;50.966;16.992;2023-07-20T10:20:19;100999.73;;;21.71;64.95
57050;BME280;42935;50.966;16.992;2023-07-20T10:23:38;101016.67;;;22.26;63.82
57050;BME280;42935;50.966;16.992;2023-07-20T10:26:55;101009.22;;;21.49;63.86
57050;BME280;42935;50.966;16.992;2023-07-20T10:30:13;101002.41;;;22.45;62.73
57050;BME280;42935;50.966;16.992;2023-07-20T10:33:31;101006.92;;;22.54;62.46
57050;BME280;42935;50.966;16.992;2023-07-20T10:36:47;101005.20;;;22.19;60.67
57050;BME280;42935;50.966;16.992;2023-07-20T10:43:37;101003.07;;;22.45;60.41
57050;BME280;42935;50.966;16.992;2023-07-20T10:47:00;100987.77;;;22.74;58.44
57050;BME280;42935;50.966;16.992;2023-07-20T10:54:33;100992.07;;;22.26;60.38
57050;BME280;42935;50.966;16.992;2023-07-20T10:57:43;100990.29;;;23.17;60.12
57050;BME280;42935;50.966;16.992;2023-07-20T11:01:05;100967.89;;;22.62;59.95
57050;BME280;42935;50.966;16.992;2023-07-20T11:04:52;100982.52;;;22.35;59.11
57050;BME280;42935;50.966;16.992;2023-07-20T11:08:12;100998.95;;;22.55;59.91
57050;BME280;42935;50.966;16.992;2023-07-20T11:11:30;100989.25;;;23.12;61.20
57050;BME280;42935;50.966;16.992;2023-07-20T11:18:42;100973.46;;;22.62;60.75
57050;BME280;42935;50.966;16.992;2023-07-20T11:22:33;100976.30;;;22.87;60.42
57050;BME280;42935;50.966;16.992;2023-07-20T11:25:52;100957.51;;;23.45;59.56
57050;BME280;42935;50.966;16.992;2023-07-20T11:29:15;100971.75;;;22.89;58.62
57050;BME280;42935;50.966;16.992;2023-07-20T11:32:34;100992.10;;;22.34;60.29
57050;BME280;42935;50.966;16.992;2023-07-20T11:35:49;100974.98;;;22.60;61.32
57050;BME280;42935;50.966;16.992;2023-07-20T11:39:35;100984.64;;;22.92;59.79
57050;BME280;42935;50.966;16.992;2023-07-20T11:42:48;100982.16;;;22.64;58.41
57050;BME280;42935;50.966;16.992;2023-07-20T11:46:36;100999.63;;;22.34;58.73
57050;BME280;42935;50.966;16.992;2023-07-20T11:50:23;101012.59;;;21.40;63.62
57050;BME280;42935;50.966;16.992;2023-07-20T11:53:42;101039.98;;;21.02;66.60
57050;BME280;42935;50.966;16.992;2023-07-20T11:57:04;101033.32;;;20.33;64.28
57050;BME280;42935;50.966;16.992;2023-07-20T12:00:26;101046.95;;;20.12;66.73
57050;BME280;42935;50.966;16.992;2023-07-20T12:04:08;101050.15;;;20.09;69.06
57050;BME280;42935;50.966;16.992;2023-07-20T12:07:29;101048.67;;;19.86;72.08
57050;BME280;42935;50.966;16.992;2023-07-20T12:10:48;101058.23;;;19.78;75.79
57050;BME280;42935;50.966;16.992;2023-07-20T12:14:04;101048.75;;;19.73;77.04
57050;BME280;42935;50.966;16.992;2023-07-20T12:17:21;101048.69;;;19.74;76.18
57050;BME280;42935;50.966;16.992;2023-07-20T12:20:45;101033.95;;;20.43;72.89
57050;BME280;42935;50.966;16.992;2023-07-20T12:23:58;101046.94;;;20.83;70.08
57050;BME280;42935;50.966;16.992;2023-07-20T12:27:51;101049.77;;;21.04;65.31
57050;BME280;42935;50.966;16.992;2023-07-20T12:31:03;101039.99;;;21.10;65.47
57050;BME280;42935;50.966;16.992;2023-07-20T12:34:19;101047.39;;;20.70;66.65
57050;BME280;42935;50.966;16.992;2023-07-20T12:37:32;101040.31;;;20.95;67.52
57050;BME280;42935;50.966;16.992;2023-07-20T12:40:48;101024.96;;;21.07;68.63
57050;BME280;42935;50.966;16.992;2023-07-20T12:44:38;101039.89;;;21.55;68.57
57050;BME280;42935;50.966;16.992;2023-07-20T12:47:56;101036.87;;;21.63;65.96
57050;BME280;42935;50.966;16.992;2023-07-20T12:51:11;101042.97;;;22.02;66.32
57050;BME280;42935;50.966;16.992;2023-07-20T12:54:27;101032.09;;;21.77;65.56
57050;BME280;42935;50.966;16.992;2023-07-20T12:57:41;101030.57;;;22.31;64.21
57050;BME280;42935;50.966;16.992;2023-07-20T13:01:27;101026.04;;;22.64;60.49
57050;BME280;42935;50.966;16.992;2023-07-20T13:05:13;101030.75;;;22.28;61.28
57050;BME280;42935;50.966;16.992;2023-07-20T13:08:26;101034.56;;;22.17;60.96
57050;BME280;42935;50.966;16.992;2023-07-20T13:11:38;101024.45;;;22.16;60.55
57050;BME280;42935;50.966;16.992;2023-07-20T13:14:54;101016.45;;;23.28;60.11
57050;BME280;42935;50.966;16.992;2023-07-20T13:18:44;101010.41;;;22.84;60.20
57050;BME280;42935;50.966;16.992;2023-07-20T13:22:01;101027.46;;;22.25;59.60
57050;BME280;42935;50.966;16.992;2023-07-20T13:25:21;101011.59;;;22.34;60.32
57050;BME280;42935;50.966;16.992;2023-07-20T13:29:08;101029.02;;;22.72;58.89
57050;BME280;42935;50.966;16.992;2023-07-20T13:32:22;101019.66;;;23.32;55.23
57050;BME280;42935;50.966;16.992;2023-07-20T13:35:39;101004.43;;;23.91;54.10
57050;BME280;42935;50.966;16.992;2023-07-20T13:39:01;101022.59;;;23.52;53.18
57050;BME280;42935;50.966;16.992;2023-07-20T13:42:17;101019.72;;;23.17;53.01
57050;BME280;42935;50.966;16.992;2023-07-20T13:45:34;100999.59;;;23.65;52.91
57050;BME280;42935;50.966;16.992;2023-07-20T13:49:22;101010.55;;;23.70;51.77
57050;BME280;42935;50.966;16.992;2023-07-20T13:52:39;101013.16;;;23.90;51.25
57050;BME280;42935;50.966;16.992;2023-07-20T13:55:57;101009.98;;;24.42;51.02
57050;BME280;42935;50.966;16.992;2023-07-20T13:59:15;101010.49;;;24.70;51.51
57050;BME280;42935;50.966;16.992;2023-07-20T14:02:33;101004.38;;;24.72;50.42
57050;BME280;42935;50.966;16.992;2023-07-20T14:05:50;101005.53;;;24.89;50.74
57050;BME280;42935;50.966;16.992;2023-07-20T14:09:06;100993.12;;;24.94;51.05
57050;BME280;42935;50.966;16.992;2023-07-20T14:12:51;100954.02;;;25.11;50.59
57050;BME280;42935;50.966;16.992;2023-07-20T14:16:11;100997.03;;;25.21;50.70
57050;BME280;42935;50.966;16.992;2023-07-20T14:19:23;101005.98;;;24.78;51.30
57050;BME280;42935;50.966;16.992;2023-07-20T14:22:38;100997.04;;;24.46;51.15
57050;BME280;42935;50.966;16.992;2023-07-20T14:26:00;100985.29;;;23.80;52.61
57050;BME280;42935;50.966;16.992;2023-07-20T14:29:18;100993.09;;;25.28;52.52
57050;BME280;42935;50.966;16.992;2023-07-20T14:32:35;100986.54;;;25.76;50.52
57050;BME280;42935;50.966;16.992;2023-07-20T14:35:55;100984.91;;;25.17;50.66
57050;BME280;42935;50.966;16.992;2023-07-20T14:39:11;100980.84;;;25.03;51.46
57050;BME280;42935;50.966;16.992;2023-07-20T14:42:32;100981.60;;;25.00;52.61
57050;BME280;42935;50.966;16.992;2023-07-20T14:45:48;100980.05;;;24.50;51.49
57050;BME280;42935;50.966;16.992;2023-07-20T14:49:05;100983.18;;;24.50;51.00
57050;BME280;42935;50.966;16.992;2023-07-20T14:52:18;100962.71;;;24.97;49.41
57050;BME280;42935;50.966;16.992;2023-07-20T14:55:36;100976.12;;;24.87;48.74
57050;BME280;42935;50.966;16.992;2023-07-20T14:58:53;100955.88;;;25.50;48.50
57050;BME280;42935;50.966;16.992;2023-07-20T15:02:12;100957.06;;;26.01;47.54
57050;BME280;42935;50.966;16.992;2023-07-20T15:06:00;100970.34;;;25.37;47.51
57050;BME280;42935;50.966;16.992;2023-07-20T15:09:21;100969.16;;;25.04;48.20
57050;BME280;42935;50.966;16.992;2023-07-20T15:13:09;100960.27;;;25.04;47.95
57050;BME280;42935;50.966;16.992;2023-07-20T15:16:55;100954.02;;;26.39;46.74
57050;BME280;42935;50.966;16.992;2023-07-20T15:20:16;100970.52;;;25.12;47.96
57050;BME280;42935;50.966;16.992;2023-07-20T15:23:33;100968.10;;;25.76;46.84
57050;BME280;42935;50.966;16.992;2023-07-20T15:26:51;100956.57;;;26.12;47.16
57050;BME280;42935;50.966;16.992;2023-07-20T15:30:08;100965.51;;;25.99;46.58
57050;BME280;42935;50.966;16.992;2023-07-20T15:33:25;100952.41;;;26.16;46.74
57050;BME280;42935;50.966;16.992;2023-07-20T15:36:43;100942.96;;;26.69;47.57
57050;BME280;42935;50.966;16.992;2023-07-20T15:40:02;100960.92;;;26.11;47.69
57050;BME280;42935;50.966;16.992;2023-07-20T15:43:21;100961.19;;;25.10;50.06
57050;BME280;42935;50.966;16.992;2023-07-20T15:46:47;100959.69;;;26.35;46.76
57050;BME280;42935;50.966;16.992;2023-07-20T15:50:09;100969.23;;;26.58;45.84
57050;BME280;42935;50.966;16.992;2023-07-20T15:53:28;100961.88;;;26.43;45.89
57050;BME280;42935;50.966;16.992;2023-07-20T15:56:48;100973.07;;;25.99;47.24
57050;BME280;42935;50.966;16.992;2023-07-20T16:00:39;100975.96;;;25.69;47.77
57050;BME280;42935;50.966;16.992;2023-07-20T16:03:51;100982.04;;;25.15;49.14
57050;BME280;42935;50.966;16.992;2023-07-20T16:07:39;100982.27;;;24.87;49.41
57050;BME280;42935;50.966;16.992;2023-07-20T16:11:27;100989.98;;;24.43;50.32
57050;BME280;42935;50.966;16.992;2023-07-20T16:15:11;100980.88;;;24.11;51.27
57050;BME280;42935;50.966;16.992;2023-07-20T16:18:25;100974.88;;;24.03;52.10
57050;BME280;42935;50.966;16.992;2023-07-20T16:21:44;100994.74;;;23.58;52.66
57050;BME280;42935;50.966;16.992;2023-07-20T16:25:00;100990.63;;;23.68;53.00
57050;BME280;42935;50.966;16.992;2023-07-20T16:28:19;100996.37;;;22.74;55.08
57050;BME280;42935;50.966;16.992;2023-07-20T16:31:31;100965.04;;;22.18;56.22
57050;BME280;42935;50.966;16.992;2023-07-20T16:34:47;100996.58;;;22.06;56.90
57050;BME280;42935;50.966;16.992;2023-07-20T16:38:02;100994.85;;;21.85;57.19
57050;BME280;42935;50.966;16.992;2023-07-20T16:41:21;100983.71;;;22.04;57.13
57050;BME280;42935;50.966;16.992;2023-07-20T16:44:40;100992.51;;;22.28;57.84
57050;BME280;42935;50.966;16.992;2023-07-20T16:48:00;100996.69;;;22.29;57.98
57050;BME280;42935;50.966;16.992;2023-07-20T16:51:48;101001.38;;;22.38;57.36
57050;BME280;42935;50.966;16.992;2023-07-20T16:55:40;101005.39;;;22.47;57.55
57050;BME280;42935;50.966;16.992;2023-07-20T16:59:29;101008.75;;;22.44;57.44
57050;BME280;42935;50.966;16.992;2023-07-20T17:03:15;100999.85;;;22.11;57.61
57050;BME280;42935;50.966;16.992;2023-07-20T17:06:31;101008.09;;;22.02;57.83
57050;BME280;42935;50.966;16.992;2023-07-20T17:09:48;101005.12;;;21.96;57.93
57050;BME280;42935;50.966;16.992;2023-07-20T17:13:06;101007.93;;;21.81;58.28
57050;BME280;42935;50.966;16.992;2023-07-20T17:16:26;100980.41;;;21.68;58.48
57050;BME280;42935;50.966;16.992;2023-07-20T17:19:43;100957.90;;;21.59;58.51
57050;BME280;42935;50.966;16.992;2023-07-20T17:22:58;100997.96;;;22.18;58.64
57050;BME280;42935;50.966;16.992;2023-07-20T17:26:47;100949.52;;;22.55;57.17
57050;BME280;42935;50.966;16.992;2023-07-20T17:30:01;101000.22;;;23.45;55.87